createdAt,value
2018-09-08T00:02:23.740Z,99.90
2018-09-08T00:04:52.289Z,99.90
2018-09-08T00:07:26.102Z,99.90
2018-09-08T00:09:54.609Z,99.90
2018-09-08T00:12:23.116Z,99.90
2018-09-08T00:14:50.823Z,99.90
2018-09-08T00:17:24.529Z,99.90
2018-09-08T00:19:58.321Z,99.90
2018-09-08T00:22:32.182Z,99.90
2018-09-08T00:25:05.960Z,99.90
2018-09-08T00:27:39.772Z,99.90
2018-09-08T00:30:09.229Z,99.90
2018-09-08T00:32:39.338Z,99.90
2018-09-08T00:35:07.894Z,99.90
2018-09-08T00:37:36.406Z,99.90
2018-09-08T00:40:05.090Z,99.90
2018-09-08T00:42:33.614Z,99.90
2018-09-08T00:45:02.138Z,99.90
2018-09-08T00:47:30.725Z,99.90
2018-09-08T00:49:59.262Z,99.90
2018-09-08T00:52:27.795Z,99.90
2018-09-08T00:54:56.374Z,99.90
2018-09-08T00:57:24.894Z,99.90
2018-09-08T00:59:53.437Z,99.90
2018-09-08T01:02:21.986Z,99.90
2018-09-08T01:04:50.574Z,99.90
2018-09-08T01:07:24.364Z,99.90
2018-09-08T01:09:52.924Z,99.90
2018-09-08T01:12:21.449Z,99.90
2018-09-08T01:14:49.967Z,99.90
2018-09-08T01:17:18.592Z,99.90
2018-09-08T01:19:47.119Z,99.90
2018-09-08T01:22:15.728Z,99.90
2018-09-08T01:24:44.421Z,99.90
2018-09-08T01:27:12.961Z,99.90
2018-09-08T01:29:41.478Z,99.90
2018-09-08T01:32:10.008Z,99.90
2018-09-08T01:34:38.532Z,99.90
2018-09-08T01:37:07.064Z,99.90
2018-09-08T01:39:35.589Z,99.90
2018-09-08T01:42:04.117Z,99.90
2018-09-08T01:44:32.651Z,99.90
2018-09-08T01:47:01.220Z,99.90
2018-09-08T01:49:29.754Z,99.90
2018-09-08T01:51:58.267Z,99.90
2018-09-08T01:54:28.827Z,99.90
2018-09-08T01:56:57.371Z,99.90
2018-09-08T01:59:25.943Z,99.90
2018-09-08T02:01:54.480Z,99.90
2018-09-08T02:04:23.014Z,99.90
2018-09-08T02:06:51.563Z,99.90
2018-09-08T02:09:20.083Z,99.90
2018-09-08T02:11:48.669Z,99.90
2018-09-08T02:14:17.230Z,99.90
2018-09-08T02:16:45.787Z,99.90
2018-09-08T02:19:14.414Z,99.90
2018-09-08T02:21:42.952Z,99.90
2018-09-08T02:24:11.480Z,99.90
2018-09-08T02:26:40.028Z,99.90
2018-09-08T02:29:08.564Z,99.90
2018-09-08T02:31:37.118Z,99.90
2018-09-08T02:34:05.674Z,99.90
2018-09-08T02:36:34.211Z,99.90
2018-09-08T02:39:02.764Z,99.90
2018-09-08T02:41:31.289Z,99.90
2018-09-08T02:43:59.803Z,99.90
2018-09-08T02:46:28.356Z,99.90
2018-09-08T02:48:56.890Z,99.90
2018-09-08T02:51:24.313Z,99.90
2018-09-08T02:53:51.744Z,99.90
2018-09-08T02:56:19.117Z,99.90
2018-09-08T02:58:46.548Z,99.90
2018-09-08T03:01:13.947Z,99.90
2018-09-08T03:03:41.329Z,99.90
2018-09-08T03:06:08.724Z,99.90
2018-09-08T03:08:36.114Z,99.90
2018-09-08T03:11:03.519Z,99.90
2018-09-08T03:13:30.906Z,99.90
2018-09-08T03:15:58.296Z,99.90
2018-09-08T03:18:25.681Z,99.90
2018-09-08T03:20:53.106Z,99.90
2018-09-08T03:23:20.484Z,99.90
2018-09-08T03:25:47.860Z,99.90
2018-09-08T03:28:15.228Z,99.90
2018-09-08T03:30:42.604Z,99.90
2018-09-08T03:33:09.994Z,99.90
2018-09-08T03:35:37.438Z,99.90
2018-09-08T03:38:04.872Z,99.90
2018-09-08T03:40:32.248Z,99.90
2018-09-08T03:42:59.624Z,99.90
2018-09-08T03:45:27.006Z,99.90
2018-09-08T03:47:54.376Z,99.90
2018-09-08T03:50:21.758Z,99.90
2018-09-08T03:52:49.183Z,99.90
2018-09-08T03:55:16.563Z,99.90
2018-09-08T03:57:43.939Z,99.90
2018-09-08T04:00:11.334Z,99.90
2018-09-08T04:02:39.856Z,99.90
2018-09-08T04:05:08.381Z,99.90
2018-09-08T04:07:36.893Z,99.90
2018-09-08T04:10:05.538Z,99.90
2018-09-08T04:12:34.068Z,99.90
2018-09-08T04:15:02.626Z,99.90
2018-09-08T04:17:31.217Z,99.90
2018-09-08T04:19:59.722Z,99.90
2018-09-08T04:22:32.898Z,99.90
2018-09-08T04:25:01.481Z,99.90
2018-09-08T04:27:30.019Z,99.90
2018-09-08T04:29:58.647Z,99.90
2018-09-08T04:32:27.187Z,99.90
2018-09-08T04:34:55.738Z,99.90
2018-09-08T04:37:24.328Z,99.90
2018-09-08T04:39:52.850Z,99.90
2018-09-08T04:42:21.444Z,99.90
2018-09-08T04:44:50.270Z,99.90
2018-09-08T04:47:18.840Z,99.90
2018-09-08T04:49:47.392Z,99.90
2018-09-08T04:52:15.900Z,99.90
2018-09-08T04:54:44.424Z,99.90
2018-09-08T04:57:12.982Z,99.90
2018-09-08T04:59:41.496Z,99.90
2018-09-08T05:02:10.028Z,99.90
2018-09-08T05:04:38.576Z,99.90
2018-09-08T05:07:07.244Z,99.90
2018-09-08T05:09:35.750Z,99.90
2018-09-08T05:12:04.506Z,99.90
2018-09-08T05:14:34.875Z,99.90
2018-09-08T05:17:03.520Z,99.90
2018-09-08T05:19:32.055Z,99.90
2018-09-08T05:22:00.634Z,99.90
2018-09-08T05:24:29.200Z,99.90
2018-09-08T05:26:57.716Z,99.90
2018-09-08T05:29:26.260Z,99.90
2018-09-08T05:31:54.772Z,99.90
2018-09-08T05:34:23.299Z,99.90
2018-09-08T05:36:51.821Z,99.90
2018-09-08T05:39:20.345Z,99.90
2018-09-08T05:41:48.886Z,99.90
2018-09-08T05:44:17.451Z,99.90
2018-09-08T05:46:46.026Z,99.90
2018-09-08T05:49:14.532Z,99.90
2018-09-08T05:51:43.060Z,99.90
2018-09-08T05:54:11.589Z,99.90
2018-09-08T05:56:40.176Z,99.90
2018-09-08T05:59:08.744Z,99.90
2018-09-08T06:01:37.449Z,99.90
2018-09-08T06:04:05.993Z,99.90
2018-09-08T06:06:34.497Z,99.90
2018-09-08T06:09:03.139Z,99.90
2018-09-08T06:11:31.658Z,99.90
2018-09-08T06:14:00.170Z,99.90
2018-09-08T06:16:28.672Z,99.90
2018-09-08T06:18:57.291Z,99.90
2018-09-08T06:21:25.835Z,99.90
2018-09-08T06:23:54.427Z,99.90
2018-09-08T06:26:22.984Z,99.90
2018-09-08T06:28:51.604Z,99.90
2018-09-08T06:31:20.152Z,99.90
2018-09-08T06:33:48.731Z,99.90
2018-09-08T06:36:17.244Z,99.90
2018-09-08T06:38:45.856Z,99.90
2018-09-08T06:41:14.376Z,99.90
2018-09-08T06:43:42.944Z,99.90
2018-09-08T06:46:11.475Z,99.90
2018-09-08T06:48:40.035Z,99.90
2018-09-08T06:51:08.661Z,99.90
2018-09-08T06:53:37.205Z,99.90
2018-09-08T06:56:06.270Z,99.90
2018-09-08T06:58:34.849Z,99.90
2018-09-08T07:01:03.439Z,99.40
2018-09-08T07:03:32.076Z,99.80
2018-09-08T07:06:00.628Z,99.80
2018-09-08T07:08:29.166Z,99.90
2018-09-08T07:10:57.697Z,99.10
2018-09-08T07:13:26.227Z,98.40
2018-09-08T07:15:54.804Z,99.60
2018-09-08T07:18:23.316Z,98.70
2018-09-08T07:20:51.869Z,97.20
2018-09-08T07:23:20.377Z,99.50
2018-09-08T07:25:48.911Z,97.60
2018-09-08T07:28:17.438Z,96.10
2018-09-08T07:30:45.981Z,92.90
2018-09-08T07:33:14.540Z,95.70
2018-09-08T07:35:43.052Z,96.80
2018-09-08T07:38:11.609Z,96.90
2018-09-08T07:40:40.270Z,96.10
2018-09-08T07:43:08.800Z,93.00
2018-09-08T07:45:37.338Z,93.90
2018-09-08T07:48:06.060Z,94.10
2018-09-08T07:50:34.576Z,95.20
2018-09-08T07:53:03.101Z,95.10
2018-09-08T07:55:31.751Z,94.20
2018-09-08T07:58:00.530Z,94.90
2018-09-08T08:00:29.191Z,90.60
2018-09-08T08:02:57.752Z,90.70
2018-09-08T08:05:26.281Z,91.00
2018-09-08T08:07:54.831Z,90.50
2018-09-08T08:10:23.402Z,90.90
2018-09-08T08:12:52.039Z,90.50
2018-09-08T08:15:21.209Z,89.80
2018-09-08T08:17:49.761Z,90.50
2018-09-08T08:20:18.326Z,83.00
2018-09-08T08:22:46.948Z,88.60
2018-09-08T08:25:15.499Z,83.90
2018-09-08T08:27:44.124Z,87.10
2018-09-08T08:30:12.635Z,87.90
2018-09-08T08:32:41.156Z,88.80
2018-09-08T08:35:09.718Z,82.70
2018-09-08T08:37:38.369Z,81.30
2018-09-08T08:40:07.139Z,83.10
2018-09-08T08:42:35.717Z,83.10
2018-09-08T08:45:04.326Z,81.70
2018-09-08T08:47:32.884Z,81.10
2018-09-08T08:50:12.729Z,80.00
2018-09-08T08:52:52.854Z,79.70
2018-09-08T08:55:21.396Z,80.20
2018-09-08T08:57:49.952Z,79.00
2018-09-08T09:00:18.489Z,79.00
2018-09-08T09:02:47.023Z,82.90
2018-09-08T09:05:15.565Z,79.30
2018-09-08T09:07:44.111Z,77.50
2018-09-08T09:10:12.683Z,77.50
2018-09-08T09:12:41.215Z,72.70
2018-09-08T09:15:10.186Z,71.30
2018-09-08T09:17:38.382Z,74.20
2018-09-08T09:20:18.204Z,72.70
2018-09-08T09:22:57.924Z,69.60
2018-09-08T09:25:26.489Z,72.60
2018-09-08T09:27:55.014Z,71.30
2018-09-08T09:30:23.579Z,70.70
2018-09-08T09:32:52.139Z,74.10
2018-09-08T09:35:21.898Z,74.70
2018-09-08T09:37:50.428Z,70.60
2018-09-08T09:40:20.321Z,71.20
2018-09-08T09:42:48.856Z,71.30
2018-09-08T09:45:17.404Z,72.90
2018-09-08T09:47:45.971Z,66.30
2018-09-08T09:50:14.519Z,68.10
2018-09-08T09:52:43.076Z,70.10
2018-09-08T09:55:11.654Z,67.00
2018-09-08T09:57:40.191Z,67.80
2018-09-08T10:00:09.851Z,73.10
2018-09-08T10:02:45.547Z,67.70
2018-09-08T10:05:19.628Z,69.00
2018-09-08T10:07:48.781Z,66.40
2018-09-08T10:10:21.672Z,64.30
2018-09-08T10:12:50.204Z,64.60
2018-09-08T10:15:18.760Z,61.10
2018-09-08T10:17:47.426Z,62.30
2018-09-08T10:20:17.528Z,62.20
2018-09-08T10:22:46.118Z,60.80
2018-09-08T10:25:16.099Z,63.00
2018-09-08T10:27:45.394Z,63.30
2018-09-08T10:30:14.483Z,62.70
2018-09-08T10:32:44.030Z,62.60
2018-09-08T10:35:12.800Z,64.60
2018-09-08T10:37:41.583Z,65.00
2018-09-08T10:40:10.989Z,65.20
2018-09-08T10:42:39.508Z,62.30
2018-09-08T10:45:08.254Z,67.20
2018-09-08T10:47:36.906Z,64.20
2018-09-08T10:50:06.221Z,63.00
2018-09-08T10:52:37.284Z,63.40
2018-09-08T10:55:05.841Z,62.90
2018-09-08T10:57:34.413Z,59.60
2018-09-08T11:00:03.784Z,60.40
2018-09-08T11:02:32.803Z,57.90
2018-09-08T11:05:01.778Z,59.70
2018-09-08T11:07:30.815Z,57.30
2018-09-08T11:09:59.525Z,55.90
2018-09-08T11:12:28.108Z,59.80
2018-09-08T11:14:56.705Z,59.80
2018-09-08T11:17:25.472Z,58.70
2018-09-08T11:19:54.024Z,58.10
2018-09-08T11:22:23.586Z,55.80
2018-09-08T11:24:52.223Z,56.50
2018-09-08T11:27:20.763Z,53.80
2018-09-08T11:29:49.397Z,52.50
2018-09-08T11:32:17.948Z,54.20
2018-09-08T11:34:46.512Z,53.80
2018-09-08T11:37:15.031Z,52.90
2018-09-08T11:39:43.587Z,53.60
2018-09-08T11:42:12.184Z,50.70
2018-09-08T11:44:40.763Z,52.40
2018-09-08T11:47:09.317Z,50.20
2018-09-08T11:49:37.892Z,51.30
2018-09-08T11:52:06.470Z,50.90
2018-09-08T11:54:35.031Z,55.60
2018-09-08T11:57:03.613Z,49.00
2018-09-08T11:59:32.261Z,50.10
2018-09-08T12:02:00.886Z,51.30
2018-09-08T12:04:30.351Z,51.90
2018-09-08T12:06:59.010Z,48.20
2018-09-08T12:09:27.550Z,48.50
2018-09-08T12:11:56.090Z,48.40
2018-09-08T12:14:24.704Z,49.60
2018-09-08T12:16:53.260Z,49.90
2018-09-08T12:19:21.829Z,51.20
2018-09-08T12:21:50.343Z,49.00
2018-09-08T12:24:18.855Z,50.00
2018-09-08T12:26:47.378Z,46.60
2018-09-08T12:29:15.877Z,47.60
2018-09-08T12:31:44.377Z,47.70
2018-09-08T12:34:12.868Z,49.50
2018-09-08T12:36:41.389Z,48.90
2018-09-08T12:39:10.226Z,50.30
2018-09-08T12:41:38.732Z,46.10
2018-09-08T12:44:07.239Z,49.00
2018-09-08T12:46:35.752Z,49.50
2018-09-08T12:49:04.252Z,51.30
2018-09-08T12:51:32.829Z,49.40
2018-09-08T12:54:01.361Z,48.70
2018-09-08T12:56:29.906Z,48.40
2018-09-08T12:58:58.424Z,49.50
2018-09-08T13:01:26.966Z,46.90
2018-09-08T13:03:55.490Z,48.60
2018-09-08T13:06:23.996Z,50.60
2018-09-08T13:08:52.492Z,48.20
2018-09-08T13:11:21.008Z,45.70
2018-09-08T13:13:49.537Z,47.10
2018-09-08T13:16:18.058Z,47.40
2018-09-08T13:18:46.567Z,49.20
2018-09-08T13:21:15.076Z,46.70
2018-09-08T13:23:43.604Z,45.60
2018-09-08T13:26:12.092Z,44.80
2018-09-08T13:28:40.650Z,47.60
2018-09-08T13:31:09.165Z,49.00
2018-09-08T13:33:37.668Z,47.80
2018-09-08T13:36:06.193Z,47.80
2018-09-08T13:38:34.731Z,47.50
2018-09-08T13:41:03.312Z,46.90
2018-09-08T13:43:31.924Z,46.80
2018-09-08T13:46:00.459Z,45.60
2018-09-08T13:48:29.076Z,46.20
2018-09-08T13:50:57.656Z,45.10
2018-09-08T13:53:26.224Z,46.60
2018-09-08T13:55:54.760Z,50.10
2018-09-08T13:58:23.291Z,46.30
2018-09-08T14:00:51.890Z,44.90
2018-09-08T14:03:20.489Z,46.50
2018-09-08T14:05:49.000Z,45.50
2018-09-08T14:08:17.844Z,47.20
2018-09-08T14:10:47.241Z,44.60
2018-09-08T14:13:15.872Z,46.70
2018-09-08T14:15:44.471Z,43.10
2018-09-08T14:18:13.001Z,47.40
2018-09-08T14:20:41.580Z,43.50
2018-09-08T14:23:10.122Z,44.50
2018-09-08T14:25:38.658Z,44.50
2018-09-08T14:28:08.356Z,45.70
2018-09-08T14:30:36.872Z,46.80
2018-09-08T14:33:05.462Z,43.80
2018-09-08T14:35:34.128Z,45.70
2018-09-08T14:38:02.686Z,45.80
2018-09-08T14:40:31.226Z,46.40
2018-09-08T14:42:59.860Z,46.80
2018-09-08T14:45:28.363Z,45.40
2018-09-08T14:47:57.280Z,46.10
2018-09-08T14:50:27.222Z,46.50
2018-09-08T14:52:55.751Z,46.40
2018-09-08T14:55:25.274Z,46.70
2018-09-08T14:57:53.814Z,47.10
2018-09-08T15:00:22.385Z,47.20
2018-09-08T15:02:51.016Z,46.60
2018-09-08T15:05:19.537Z,47.70
2018-09-08T15:07:48.067Z,47.60
2018-09-08T15:10:16.677Z,47.20
2018-09-08T15:12:45.185Z,48.90
2018-09-08T15:15:13.695Z,48.10
2018-09-08T15:17:42.805Z,48.60
2018-09-08T15:20:11.418Z,45.90
2018-09-08T15:22:39.915Z,46.40
2018-09-08T15:25:08.434Z,50.10
2018-09-08T15:27:37.001Z,49.90
2018-09-08T15:30:05.563Z,49.20
2018-09-08T15:32:34.064Z,51.20
2018-09-08T15:35:02.598Z,51.10
2018-09-08T15:37:31.164Z,53.20
2018-09-08T15:39:59.694Z,53.40
2018-09-08T15:42:28.258Z,52.90
2018-09-08T15:44:56.828Z,53.40
2018-09-08T15:47:25.363Z,53.80
2018-09-08T15:49:53.906Z,53.00
2018-09-08T15:52:22.415Z,51.40
2018-09-08T15:54:50.925Z,52.20
2018-09-08T15:57:19.452Z,51.10
2018-09-08T15:59:48.158Z,51.40
2018-09-08T16:02:16.677Z,51.20
2018-09-08T16:04:45.265Z,49.10
2018-09-08T16:07:13.793Z,50.90
2018-09-08T16:09:42.332Z,50.60
2018-09-08T16:12:10.881Z,51.70
2018-09-08T16:14:39.423Z,52.60
2018-09-08T16:17:08.160Z,53.00
2018-09-08T16:19:36.692Z,52.60
2018-09-08T16:22:05.277Z,52.60
2018-09-08T16:24:33.808Z,54.20
2018-09-08T16:27:02.406Z,55.30
2018-09-08T16:29:30.989Z,54.40
2018-09-08T16:31:59.485Z,55.10
2018-09-08T16:34:28.023Z,55.00
2018-09-08T16:36:56.563Z,55.30
2018-09-08T16:39:25.110Z,56.50
2018-09-08T16:41:53.631Z,55.60
2018-09-08T16:44:22.143Z,55.70
2018-09-08T16:46:50.676Z,54.80
2018-09-08T16:49:20.139Z,53.80
2018-09-08T16:51:48.840Z,54.40
2018-09-08T16:54:17.418Z,55.00
2018-09-08T16:56:46.049Z,55.90
2018-09-08T16:59:14.674Z,56.10
2018-09-08T17:01:43.205Z,56.30
2018-09-08T17:04:11.918Z,56.80
2018-09-08T17:06:40.486Z,56.80
2018-09-08T17:09:09.220Z,56.80
2018-09-08T17:11:38.291Z,56.90
2018-09-08T17:14:06.886Z,58.20
2018-09-08T17:16:35.478Z,58.80
2018-09-08T17:19:04.131Z,60.30
2018-09-08T17:21:32.698Z,61.20
2018-09-08T17:24:01.206Z,61.10
2018-09-08T17:26:29.766Z,61.20
2018-09-08T17:28:58.277Z,62.90
2018-09-08T17:31:26.811Z,62.80
2018-09-08T17:33:55.382Z,62.20
2018-09-08T17:36:23.928Z,63.30
2018-09-08T17:38:52.519Z,63.90
2018-09-08T17:41:21.048Z,64.20
2018-09-08T17:43:49.688Z,64.20
2018-09-08T17:46:18.233Z,64.20
2018-09-08T17:48:46.826Z,65.00
2018-09-08T17:51:15.431Z,65.40
2018-09-08T17:53:43.989Z,64.90
2018-09-08T17:56:12.526Z,66.30
2018-09-08T17:58:41.092Z,66.40
2018-09-08T18:01:09.633Z,65.50
2018-09-08T18:03:38.318Z,66.50
2018-09-08T18:06:06.883Z,68.20
2018-09-08T18:08:35.401Z,69.20
2018-09-08T18:11:03.946Z,69.30
2018-09-08T18:13:32.490Z,69.00
2018-09-08T18:16:01.087Z,69.10
2018-09-08T18:18:29.607Z,67.80
2018-09-08T18:20:58.276Z,68.70
2018-09-08T18:23:26.856Z,69.30
2018-09-08T18:25:55.442Z,69.90
2018-09-08T18:28:24.008Z,69.00
2018-09-08T18:30:52.631Z,71.30
2018-09-08T18:33:21.221Z,71.40
2018-09-08T18:35:52.214Z,71.00
2018-09-08T18:38:21.813Z,70.20
2018-09-08T18:40:50.523Z,70.20
2018-09-08T18:43:19.304Z,70.70
2018-09-08T18:45:48.008Z,70.90
2018-09-08T18:48:16.723Z,72.20
2018-09-08T18:50:45.298Z,71.80
2018-09-08T18:53:14.612Z,72.10
2018-09-08T18:55:43.345Z,73.10
2018-09-08T18:58:12.029Z,73.70
2018-09-08T19:00:40.942Z,74.40
2018-09-08T19:03:09.552Z,74.70
2018-09-08T19:05:38.173Z,75.10
2018-09-08T19:08:06.766Z,75.00
2018-09-08T19:10:35.847Z,75.80
2018-09-08T19:13:05.021Z,76.00
2018-09-08T19:15:34.618Z,76.80
2018-09-08T19:18:03.200Z,77.10
2018-09-08T19:20:37.508Z,77.30
2018-09-08T19:23:06.223Z,78.00
2018-09-08T19:25:35.199Z,78.20
2018-09-08T19:28:03.776Z,78.80
2018-09-08T19:30:32.352Z,78.30
2018-09-08T19:33:00.931Z,78.30
2018-09-08T19:35:34.947Z,78.30
2018-09-08T19:38:03.555Z,79.00
2018-09-08T19:40:37.548Z,79.20
2018-09-08T19:43:06.237Z,79.60
2018-09-08T19:45:34.991Z,79.60
2018-09-08T19:48:05.779Z,79.80
2018-09-08T19:50:34.535Z,80.20
2018-09-08T19:53:08.363Z,80.50
2018-09-08T19:55:36.962Z,80.10
2018-09-08T19:58:10.825Z,80.00
2018-09-08T20:00:39.505Z,80.70
2018-09-08T20:03:08.101Z,81.30
2018-09-08T20:05:36.699Z,81.20
2018-09-08T20:08:05.264Z,81.60
2018-09-08T20:10:33.867Z,82.10
2018-09-08T20:13:02.439Z,82.10
2018-09-08T20:15:30.984Z,82.40
2018-09-08T20:17:59.528Z,81.90
2018-09-08T20:20:38.587Z,82.00
2018-09-08T20:23:07.165Z,81.70
2018-09-08T20:25:35.754Z,81.60
2018-09-08T20:28:04.302Z,81.30
2018-09-08T20:30:32.821Z,82.10
2018-09-08T20:33:01.344Z,82.50
2018-09-08T20:35:29.897Z,82.70
2018-09-08T20:37:58.472Z,83.10
2018-09-08T20:40:27.019Z,83.20
2018-09-08T20:42:55.604Z,82.70
2018-09-08T20:45:24.159Z,82.80
2018-09-08T20:47:52.810Z,83.10
2018-09-08T20:50:21.352Z,83.70
2018-09-08T20:52:49.834Z,83.80
2018-09-08T20:55:18.513Z,84.50
2018-09-08T20:57:47.132Z,84.90
2018-09-08T21:00:15.703Z,85.10
2018-09-08T21:02:44.234Z,85.10
2018-09-08T21:05:12.779Z,85.30
2018-09-08T21:07:41.324Z,85.70
2018-09-08T21:10:09.889Z,85.90
2018-09-08T21:12:38.436Z,85.70
2018-09-08T21:15:07.536Z,85.50
2018-09-08T21:17:36.076Z,85.60
2018-09-08T21:20:04.644Z,85.60
2018-09-08T21:22:33.181Z,85.60
2018-09-08T21:25:01.717Z,85.40
2018-09-08T21:27:30.246Z,86.10
2018-09-08T21:29:58.812Z,86.50
2018-09-08T21:32:27.518Z,86.80
2018-09-08T21:34:56.047Z,86.90
2018-09-08T21:37:24.584Z,87.30
2018-09-08T21:39:53.164Z,87.10
2018-09-08T21:42:21.701Z,87.00
2018-09-08T21:44:50.314Z,87.40
2018-09-08T21:47:18.924Z,86.70
2018-09-08T21:49:47.456Z,86.80
2018-09-08T21:52:16.168Z,87.50
2018-09-08T21:54:44.710Z,87.50
2018-09-08T21:57:13.266Z,87.40
2018-09-08T21:59:41.818Z,87.60
2018-09-08T22:02:10.350Z,87.70
2018-09-08T22:04:38.880Z,88.10
2018-09-08T22:07:07.421Z,88.60
2018-09-08T22:09:35.982Z,88.50
2018-09-08T22:12:05.177Z,88.10
2018-09-08T22:14:33.712Z,88.70
2018-09-08T22:17:02.249Z,89.00
2018-09-08T22:19:30.805Z,88.80
2018-09-08T22:21:59.362Z,88.50
2018-09-08T22:24:27.888Z,88.90
2018-09-08T22:26:56.431Z,89.00
2018-09-08T22:29:25.008Z,89.10
2018-09-08T22:31:53.558Z,89.30
2018-09-08T22:34:22.100Z,88.60
2018-09-08T22:36:50.630Z,88.20
2018-09-08T22:39:19.169Z,87.60
2018-09-08T22:41:47.702Z,88.00
2018-09-08T22:44:16.248Z,88.20
2018-09-08T22:46:44.769Z,88.50
2018-09-08T22:49:13.308Z,88.80
2018-09-08T22:51:41.842Z,89.20
2018-09-08T22:54:10.404Z,89.40
2018-09-08T22:56:38.952Z,89.50
2018-09-08T22:59:07.520Z,89.30
2018-09-08T23:01:36.057Z,89.70
2018-09-08T23:04:04.614Z,89.80
2018-09-08T23:06:33.144Z,89.70
2018-09-08T23:09:01.697Z,89.90
2018-09-08T23:11:30.204Z,90.00
2018-09-08T23:13:58.747Z,90.00
2018-09-08T23:16:27.320Z,90.10
2018-09-08T23:18:55.844Z,88.90
2018-09-08T23:21:24.366Z,89.30
2018-09-08T23:23:52.894Z,89.50
2018-09-08T23:26:21.428Z,89.60
2018-09-08T23:28:50.090Z,89.80
2018-09-08T23:31:18.602Z,89.70
2018-09-08T23:33:47.163Z,90.00
2018-09-08T23:36:15.680Z,90.30
2018-09-08T23:38:44.200Z,90.20
2018-09-08T23:41:12.736Z,90.40
2018-09-08T23:43:41.292Z,90.30
2018-09-08T23:46:09.909Z,90.50
2018-09-08T23:48:38.439Z,90.20
2018-09-08T23:51:07.363Z,90.20
2018-09-08T23:53:35.893Z,90.10
2018-09-08T23:56:04.472Z,90.30
2018-09-08T23:58:32.974Z,90.60
